Time;durP1;ratioP1;P1;durP2;ratioP2;P2;SDS_P1;SDS_P2;PMS_P1;PMS_P2;Temp;Humidity;BMP_temperature;BMP_pressure;BME280_temperature;BME280_humidity;BME280_pressure;Samples;Min_cycle;Max_cycle;Signal;HPM_P1;HPM_P2
2022/09/25 00:01:57;;;;;;;8.55;3.60;;;;;;;;;;7392750;19;20014;-72
2022/09/25 00:04:22;;;;;;;2.83;2.22;;;;;;;;;;7395955;19;20022;-72
2022/09/25 00:06:48;;;;;;;4.32;2.97;;;;;;;;;;7395220;19;20010;-72
2022/09/25 00:09:17;;;;;;;2.35;2.15;;;;;;;;;;7391670;19;19995;-72
2022/09/25 00:11:42;;;;;;;3.30;2.75;;;;;;;;;;7394114;19;20013;-72
2022/09/25 00:14:08;;;;;;;5.10;3.10;;;;;;;;;;7394870;19;20051;-72
2022/09/25 00:16:33;;;;;;;5.80;3.63;;;;;;;;;;7392233;19;20443;-72
2022/09/25 00:21:43;;;;;;;7.03;3.40;;;;;;;;;;7392811;19;20053;-74
2022/09/25 00:24:10;;;;;;;8.25;3.03;;;;;;;;;;7396222;19;20014;-72
2022/09/25 00:26:38;;;;;;;3.72;2.75;;;;;;;;;;7394805;19;20019;-72
2022/09/25 00:29:05;;;;;;;3.45;2.58;;;;;;;;;;7391776;19;20096;-72
2022/09/25 00:31:31;;;;;;;13.73;3.92;;;;;;;;;;7393595;19;20383;-72
2022/09/25 00:34:01;;;;;;;8.80;4.05;;;;;;;;;;7394512;19;20009;-72
2022/09/25 00:36:27;;;;;;;8.20;3.72;;;;;;;;;;7395296;19;20031;-72
2022/09/25 00:38:53;;;;;;;14.27;3.97;;;;;;;;;;7392228;19;20004;-72
2022/09/25 00:41:22;;;;;;;16.23;4.80;;;;;;;;;;7392605;19;20006;-72
2022/09/25 00:43:50;;;;;;;7.28;4.03;;;;;;;;;;7395953;19;20015;-72
2022/09/25 00:46:23;;;;;;;7.10;4.05;;;;;;;;;;7390344;19;19998;-72
2022/09/25 00:49:05;;;;;;;7.75;4.13;;;;;;;;;;7390352;19;19999;-72
2022/09/25 00:51:40;;;;;;;4.32;2.85;;;;;;;;;;7391619;19;20006;-72
2022/09/25 00:54:09;;;;;;;4.75;2.53;;;;;;;;;;7392281;19;20010;-72
2022/09/25 00:56:40;;;;;;;5.18;3.38;;;;;;;;;;7393957;19;20014;-72
2022/09/25 00:59:11;;;;;;;6.75;3.08;;;;;;;;;;7392063;19;20573;-72
2022/09/25 01:01:37;;;;;;;3.60;2.63;;;;;;;;;;7384217;19;20035;-72
2022/09/25 01:04:02;;;;;;;4.70;2.72;;;;;;;;;;7393686;19;19995;-73
2022/09/25 01:06:28;;;;;;;15.57;3.92;;;;;;;;;;7393930;19;20351;-72
2022/09/25 01:08:55;;;;;;;5.30;3.22;;;;;;;;;;7394682;19;20040;-72
2022/09/25 01:11:20;;;;;;;7.38;3.38;;;;;;;;;;7391742;19;19999;-72
2022/09/25 01:13:46;;;;;;;7.65;3.53;;;;;;;;;;7394820;19;20009;-72
2022/09/25 01:16:18;;;;;;;6.43;4.00;;;;;;;;;;7390334;19;20795;-72
2022/09/25 01:18:52;;;;;;;4.63;3.08;;;;;;;;;;7390817;19;20010;-72
2022/09/25 01:21:52;;;;;;;3.90;2.70;;;;;;;;;;7390594;19;20020;-72
2022/09/25 01:24:26;;;;;;;7.10;2.88;;;;;;;;;;7388462;19;20002;-72
2022/09/25 01:27:14;;;;;;;4.28;3.13;;;;;;;;;;7390492;19;20019;-73
2022/09/25 01:29:41;;;;;;;8.82;4.07;;;;;;;;;;7388238;19;20009;-72
2022/09/25 01:32:29;;;;;;;5.15;3.50;;;;;;;;;;7391912;19;20759;-74
2022/09/25 01:35:01;;;;;;;3.75;2.58;;;;;;;;;;7393535;19;20014;-72
2022/09/25 01:37:42;;;;;;;4.43;3.00;;;;;;;;;;7391622;19;20088;-72
2022/09/25 01:40:29;;;;;;;4.05;2.97;;;;;;;;;;7390399;19;20014;-72
2022/09/25 01:43:09;;;;;;;3.92;3.13;;;;;;;;;;7392922;19;20074;-72
2022/09/25 01:45:47;;;;;;;3.92;3.05;;;;;;;;;;7389926;19;20006;-72
2022/09/25 01:48:15;;;;;;;6.05;3.33;;;;;;;;;;7391144;19;20031;-72
2022/09/25 01:51:09;;;;;;;4.95;3.40;;;;;;;;;;7390205;19;20066;-72
2022/09/25 01:53:40;;;;;;;3.83;2.83;;;;;;;;;;7393663;19;20006;-75
2022/09/25 01:56:12;;;;;;;10.85;4.28;;;;;;;;;;7389109;19;19999;-72
2022/09/25 01:58:45;;;;;;;9.27;4.45;;;;;;;;;;7395832;19;20054;-72
2022/09/25 02:01:21;;;;;;;5.78;4.25;;;;;;;;;;7397156;19;20023;-72
2022/09/25 02:03:55;;;;;;;8.48;3.50;;;;;;;;;;7398373;19;20014;-72
2022/09/25 02:06:21;;;;;;;7.75;3.67;;;;;;;;;;7397515;19;20010;-72
2022/09/25 02:09:14;;;;;;;22.58;5.63;;;;;;;;;;7398510;19;20018;-72
2022/09/25 02:11:43;;;;;;;4.43;3.58;;;;;;;;;;7394959;19;20022;-72
2022/09/25 02:14:17;;;;;;;13.45;5.53;;;;;;;;;;7397301;19;20010;-72
2022/09/25 02:16:47;;;;;;;15.82;4.90;;;;;;;;;;7396752;19;20003;-72
2022/09/25 02:22:19;;;;;;;19.25;6.03;;;;;;;;;;7397401;19;20027;-72
2022/09/25 02:24:56;;;;;;;16.85;5.97;;;;;;;;;;7397027;19;20009;-72
2022/09/25 02:27:23;;;;;;;29.13;6.43;;;;;;;;;;7400469;19;20416;-72
2022/09/25 02:29:50;;;;;;;21.92;6.90;;;;;;;;;;7396484;19;20007;-72
2022/09/25 02:32:20;;;;;;;31.88;6.50;;;;;;;;;;7396525;19;20002;-72
2022/09/25 02:34:46;;;;;;;15.48;5.07;;;;;;;;;;7399318;19;20023;-72
2022/09/25 02:37:13;;;;;;;38.85;5.90;;;;;;;;;;7397089;19;20400;-72
2022/09/25 02:39:40;;;;;;;5.50;3.72;;;;;;;;;;7391892;19;20432;-72
2022/09/25 02:42:08;;;;;;;7.15;3.20;;;;;;;;;;7397096;19;20008;-72
2022/09/25 02:45:11;;;;;;;8.50;4.43;;;;;;;;;;7395219;19;20487;-72
2022/09/25 02:47:46;;;;;;;18.95;4.25;;;;;;;;;;7391598;19;20003;-72
2022/09/25 02:50:19;;;;;;;4.53;3.47;;;;;;;;;;7395515;19;20002;-72
2022/09/25 02:53:00;;;;;;;4.95;3.83;;;;;;;;;;7397476;19;20466;-72
2022/09/25 02:55:47;;;;;;;6.65;3.80;;;;;;;;;;7393032;19;19998;-72
2022/09/25 02:58:12;;;;;;;14.73;5.38;;;;;;;;;;7398953;19;20010;-72
2022/09/25 03:00:40;;;;;;;6.10;4.25;;;;;;;;;;7397010;19;20017;-72
2022/09/25 03:03:10;;;;;;;43.78;6.43;;;;;;;;;;7391535;19;20123;-72
2022/09/25 03:05:36;;;;;;;4.88;3.67;;;;;;;;;;7397117;19;20333;-72
2022/09/25 03:10:47;;;;;;;36.67;8.93;;;;;;;;;;7395602;19;20035;-72
2022/09/25 03:13:21;;;;;;;8.25;4.70;;;;;;;;;;7394199;19;20015;-71
2022/09/25 03:15:54;;;;;;;23.48;5.90;;;;;;;;;;7391083;19;20023;-72
2022/09/25 03:18:20;;;;;;;6.25;4.15;;;;;;;;;;7393712;19;20006;-71
2022/09/25 03:20:46;;;;;;;4.35;3.58;;;;;;;;;;7393148;19;20006;-74
2022/09/25 03:23:11;;;;;;;33.42;6.30;;;;;;;;;;7394970;19;20006;-74
2022/09/25 03:25:37;;;;;;;15.05;5.35;;;;;;;;;;7396947;19;19998;-74
2022/09/25 03:28:02;;;;;;;4.00;3.20;;;;;;;;;;7393863;19;20363;-74
2022/09/25 03:30:28;;;;;;;10.75;6.70;;;;;;;;;;7393300;19;20032;-74
2022/09/25 03:32:53;;;;;;;6.07;4.55;;;;;;;;;;7394900;19;20041;-74
2022/09/25 03:35:19;;;;;;;6.75;3.92;;;;;;;;;;7394794;19;19999;-74
2022/09/25 03:37:44;;;;;;;8.85;4.43;;;;;;;;;;7393377;19;20002;-72
2022/09/25 03:40:09;;;;;;;11.02;5.47;;;;;;;;;;7392903;19;20003;-74
2022/09/25 03:42:35;;;;;;;4.93;3.88;;;;;;;;;;7393990;19;20014;-72
2022/09/25 03:45:01;;;;;;;7.63;4.47;;;;;;;;;;7395433;19;20002;-74
2022/09/25 03:47:26;;;;;;;8.10;4.40;;;;;;;;;;7393453;19;20007;-73
2022/09/25 03:49:51;;;;;;;18.08;6.22;;;;;;;;;;7393226;19;20066;-72
2022/09/25 03:52:17;;;;;;;9.35;5.03;;;;;;;;;;7393524;19;20003;-74
2022/09/25 03:54:42;;;;;;;10.00;5.93;;;;;;;;;;7390668;19;20575;-71
2022/09/25 03:57:08;;;;;;;4.22;2.92;;;;;;;;;;7392440;19;20022;-74
2022/09/25 03:59:33;;;;;;;7.25;4.57;;;;;;;;;;7392067;19;20010;-72
2022/09/25 04:01:59;;;;;;;17.98;5.65;;;;;;;;;;7391141;19;20406;-72
2022/09/25 04:04:24;;;;;;;7.55;5.10;;;;;;;;;;7394212;19;20118;-72
2022/09/25 04:06:49;;;;;;;7.07;5.47;;;;;;;;;;7396678;19;20430;-72
2022/09/25 04:09:15;;;;;;;7.57;5.10;;;;;;;;;;7391865;19;19998;-72
2022/09/25 04:11:40;;;;;;;7.07;4.78;;;;;;;;;;7390501;19;20006;-72
2022/09/25 04:14:06;;;;;;;7.13;5.10;;;;;;;;;;7393297;19;20025;-72
2022/09/25 04:16:31;;;;;;;6.22;5.30;;;;;;;;;;7395561;19;20443;-72
2022/09/25 04:18:56;;;;;;;8.38;5.28;;;;;;;;;;7392184;19;20386;-72
2022/09/25 04:21:22;;;;;;;4.22;3.40;;;;;;;;;;7389882;19;20040;-72
2022/09/25 04:26:31;;;;;;;10.00;4.53;;;;;;;;;;7391887;19;20345;-72
2022/09/25 04:28:56;;;;;;;6.13;4.70;;;;;;;;;;7391062;19;20003;-72
2022/09/25 04:31:22;;;;;;;7.70;4.88;;;;;;;;;;7393702;19;20355;-72
2022/09/25 04:33:47;;;;;;;5.30;3.75;;;;;;;;;;7391233;19;19999;-72
2022/09/25 04:36:14;;;;;;;9.50;5.38;;;;;;;;;;7390923;19;20394;-72
2022/09/25 04:38:39;;;;;;;46.13;6.63;;;;;;;;;;7390580;19;20068;-72
2022/09/25 04:41:06;;;;;;;8.52;4.82;;;;;;;;;;7391247;19;20003;-72
2022/09/25 04:43:33;;;;;;;6.07;3.97;;;;;;;;;;7393055;19;20077;-72
2022/09/25 04:46:02;;;;;;;4.15;3.25;;;;;;;;;;7394185;19;20023;-72
2022/09/25 04:48:28;;;;;;;6.25;4.47;;;;;;;;;;7392008;19;20027;-72
2022/09/25 04:50:53;;;;;;;7.43;5.15;;;;;;;;;;7392395;19;20006;-72
2022/09/25 04:53:18;;;;;;;5.35;3.47;;;;;;;;;;7392826;19;19990;-72
2022/09/25 04:55:45;;;;;;;4.50;3.30;;;;;;;;;;7389233;19;20324;-72
2022/09/25 04:58:10;;;;;;;4.65;3.70;;;;;;;;;;7393861;19;19995;-72
2022/09/25 05:00:37;;;;;;;13.77;5.72;;;;;;;;;;7392815;19;20014;-72
2022/09/25 05:03:03;;;;;;;5.57;4.20;;;;;;;;;;7391566;19;20007;-72
2022/09/25 05:05:29;;;;;;;14.15;5.80;;;;;;;;;;7390066;19;20500;-72
2022/09/25 05:07:57;;;;;;;12.55;5.15;;;;;;;;;;7384955;19;20010;-72
2022/09/25 05:10:28;;;;;;;8.73;4.82;;;;;;;;;;7390049;19;20065;-72
2022/09/25 05:12:59;;;;;;;8.07;4.82;;;;;;;;;;7392045;19;20023;-71
2022/09/25 05:15:26;;;;;;;8.52;6.20;;;;;;;;;;7390327;19;20106;-72
2022/09/25 05:18:02;;;;;;;9.27;4.90;;;;;;;;;;7389769;19;20348;-72
2022/09/25 05:20:28;;;;;;;21.85;6.25;;;;;;;;;;7390667;19;19998;-71
2022/09/25 05:22:55;;;;;;;28.92;6.75;;;;;;;;;;7389442;19;20091;-72
2022/09/25 05:25:22;;;;;;;12.07;5.05;;;;;;;;;;7388277;19;20006;-72
2022/09/25 05:27:49;;;;;;;5.47;3.92;;;;;;;;;;7393111;19;20012;-72
2022/09/25 05:30:15;;;;;;;5.82;3.63;;;;;;;;;;7390831;19;20006;-72
2022/09/25 05:32:48;;;;;;;7.60;4.75;;;;;;;;;;7392714;19;20018;-72
2022/09/25 05:35:13;;;;;;;8.70;5.38;;;;;;;;;;7387892;19;20006;-72
2022/09/25 05:37:39;;;;;;;7.55;5.13;;;;;;;;;;7391385;19;20006;-72
2022/09/25 05:40:05;;;;;;;4.90;4.20;;;;;;;;;;7388405;19;20107;-72
2022/09/25 05:42:30;;;;;;;7.63;4.65;;;;;;;;;;7390160;19;20013;-72
2022/09/25 05:44:56;;;;;;;5.65;4.15;;;;;;;;;;7389188;19;20022;-71
2022/09/25 05:47:21;;;;;;;8.82;5.40;;;;;;;;;;7391124;19;20446;-71
2022/09/25 05:49:46;;;;;;;10.20;5.80;;;;;;;;;;7390534;19;20159;-71
2022/09/25 05:52:12;;;;;;;6.50;4.32;;;;;;;;;;7382496;19;20007;-70
2022/09/25 05:54:37;;;;;;;4.03;3.08;;;;;;;;;;7390404;19;20011;-71
2022/09/25 05:57:02;;;;;;;13.70;4.93;;;;;;;;;;7388597;19;19994;-71
2022/09/25 05:59:28;;;;;;;10.85;5.30;;;;;;;;;;7391414;19;20484;-71
2022/09/25 06:01:53;;;;;;;15.48;5.38;;;;;;;;;;7391801;19;20010;-71
2022/09/25 06:04:19;;;;;;;4.45;3.70;;;;;;;;;;7389401;19;20010;-70
2022/09/25 06:06:44;;;;;;;35.47;6.55;;;;;;;;;;7389415;19;20007;-71
2022/09/25 06:09:09;;;;;;;4.75;3.72;;;;;;;;;;7388791;19;20010;-71
2022/09/25 06:11:35;;;;;;;7.88;4.07;;;;;;;;;;7390642;19;20010;-71
2022/09/25 06:14:00;;;;;;;11.80;5.72;;;;;;;;;;7389947;19;20013;-71
2022/09/25 06:16:25;;;;;;;6.38;5.03;;;;;;;;;;7389957;19;20005;-71
2022/09/25 06:18:51;;;;;;;5.22;4.15;;;;;;;;;;7392527;19;20010;-71
2022/09/25 06:21:17;;;;;;;5.28;4.22;;;;;;;;;;7388999;19;20378;-71
2022/09/25 06:23:45;;;;;;;7.30;4.55;;;;;;;;;;7386523;19;20017;-71
2022/09/25 06:26:11;;;;;;;4.18;2.67;;;;;;;;;;7389479;19;20030;-71
2022/09/25 06:28:37;;;;;;;6.95;3.70;;;;;;;;;;7390517;19;20446;-71
2022/09/25 06:31:03;;;;;;;4.43;3.53;;;;;;;;;;7391300;19;20035;-71
2022/09/25 06:33:29;;;;;;;3.85;3.10;;;;;;;;;;7385090;19;20082;-71
2022/09/25 06:35:54;;;;;;;5.35;4.30;;;;;;;;;;7387648;19;20039;-71
2022/09/25 06:38:20;;;;;;;4.72;3.60;;;;;;;;;;7389872;19;20025;-71
2022/09/25 06:40:45;;;;;;;3.97;3.25;;;;;;;;;;7389708;19;20046;-71
2022/09/25 06:43:13;;;;;;;5.25;3.80;;;;;;;;;;7389060;19;20007;-71
2022/09/25 06:45:39;;;;;;;5.30;3.92;;;;;;;;;;7397358;19;20393;-71
2022/09/25 06:48:11;;;;;;;3.72;3.35;;;;;;;;;;7394171;19;19998;-71
2022/09/25 06:50:47;;;;;;;4.13;3.30;;;;;;;;;;7395469;19;20463;-71
2022/09/25 06:53:14;;;;;;;5.15;4.25;;;;;;;;;;7393536;19;20023;-71
2022/09/25 06:55:40;;;;;;;7.03;3.58;;;;;;;;;;7394799;19;20015;-70
2022/09/25 06:58:09;;;;;;;5.15;3.13;;;;;;;;;;7394025;19;20474;-70
2022/09/25 07:00:34;;;;;;;6.53;3.25;;;;;;;;;;7396444;19;20087;-71
2022/09/25 07:05:46;;;;;;;2.83;2.63;;;;;;;;;;7395205;19;20009;-69
2022/09/25 07:08:15;;;;;;;3.72;3.20;;;;;;;;;;7397536;19;19994;-70
2022/09/25 07:10:49;;;;;;;4.03;3.53;;;;;;;;;;7393088;19;20014;-69
2022/09/25 07:13:16;;;;;;;4.70;4.00;;;;;;;;;;7390130;19;20012;-71
2022/09/25 07:15:42;;;;;;;5.22;4.00;;;;;;;;;;7395208;19;20486;-72
2022/09/25 07:18:07;;;;;;;6.05;4.03;;;;;;;;;;7394165;19;20007;-73
2022/09/25 07:20:32;;;;;;;3.92;3.25;;;;;;;;;;7396996;19;20028;-73
2022/09/25 07:23:02;;;;;;;4.28;3.67;;;;;;;;;;7391675;19;20379;-73
2022/09/25 07:25:29;;;;;;;5.15;3.88;;;;;;;;;;7394900;19;20002;-73
2022/09/25 07:27:54;;;;;;;5.20;4.38;;;;;;;;;;7390744;19;20010;-72
2022/09/25 07:30:20;;;;;;;6.07;3.45;;;;;;;;;;7396652;19;20073;-72
2022/09/25 07:32:45;;;;;;;4.38;3.80;;;;;;;;;;7391850;19;20027;-72
2022/09/25 07:35:10;;;;;;;5.45;3.85;;;;;;;;;;7394111;19;20082;-72
2022/09/25 07:37:36;;;;;;;5.38;3.63;;;;;;;;;;7393250;19;20014;-73
2022/09/25 07:40:01;;;;;;;7.88;4.63;;;;;;;;;;7394213;19;20474;-72
2022/09/25 07:42:26;;;;;;;5.82;4.13;;;;;;;;;;7392830;19;20104;-72
2022/09/25 07:44:52;;;;;;;7.07;4.05;;;;;;;;;;7396705;19;20470;-71
2022/09/25 07:47:18;;;;;;;6.60;4.13;;;;;;;;;;7392268;19;19998;-71
2022/09/25 07:49:43;;;;;;;5.38;3.50;;;;;;;;;;7394835;19;20073;-72
2022/09/25 07:52:09;;;;;;;3.38;3.08;;;;;;;;;;7395128;19;20321;-72
2022/09/25 07:54:36;;;;;;;6.00;3.60;;;;;;;;;;7389214;19;20019;-71
2022/09/25 07:57:01;;;;;;;5.80;4.65;;;;;;;;;;7388922;19;20062;-70
2022/09/25 07:59:27;;;;;;;5.65;4.07;;;;;;;;;;7392847;19;20363;-71
2022/09/25 08:01:52;;;;;;;3.50;2.95;;;;;;;;;;7395070;19;20006;-71
2022/09/25 08:04:17;;;;;;;5.22;3.58;;;;;;;;;;7393306;19;20019;-71
2022/09/25 08:06:43;;;;;;;6.85;4.72;;;;;;;;;;7396639;19;19999;-71
2022/09/25 08:09:10;;;;;;;4.60;3.60;;;;;;;;;;7392870;19;20454;-71
2022/09/25 08:11:35;;;;;;;6.22;4.40;;;;;;;;;;7392520;19;20018;-71
2022/09/25 08:14:01;;;;;;;5.88;3.95;;;;;;;;;;7392629;19;20030;-71
2022/09/25 08:16:27;;;;;;;4.90;4.07;;;;;;;;;;7393577;19;20458;-71
2022/09/25 08:18:52;;;;;;;6.55;4.28;;;;;;;;;;7392707;19;20007;-71
2022/09/25 08:21:19;;;;;;;5.70;4.05;;;;;;;;;;7393944;19;20114;-71
2022/09/25 08:23:49;;;;;;;5.50;4.15;;;;;;;;;;7392100;19;20041;-71
2022/09/25 08:26:15;;;;;;;5.00;3.63;;;;;;;;;;7394422;19;19994;-71
2022/09/25 08:28:41;;;;;;;5.68;4.50;;;;;;;;;;7389503;19;20037;-71
2022/09/25 08:31:07;;;;;;;7.43;5.03;;;;;;;;;;7391897;19;20028;-71
2022/09/25 08:33:33;;;;;;;7.63;4.97;;;;;;;;;;7392078;19;20010;-70
2022/09/25 08:36:01;;;;;;;7.68;4.95;;;;;;;;;;7392129;19;20002;-71
2022/09/25 08:38:27;;;;;;;8.68;5.72;;;;;;;;;;7390232;19;20029;-71
2022/09/25 08:41:05;;;;;;;11.07;5.65;;;;;;;;;;7393971;19;19994;-71
2022/09/25 08:43:34;;;;;;;9.20;6.43;;;;;;;;;;7390192;19;20502;-72
2022/09/25 08:49:04;;;;;;;5.53;4.13;;;;;;;;;;7394427;19;20001;-70
2022/09/25 08:51:37;;;;;;;6.13;4.90;;;;;;;;;;7393514;19;20006;-70
2022/09/25 08:54:04;;;;;;;7.03;4.95;;;;;;;;;;7391707;19;20510;-71
2022/09/25 08:56:31;;;;;;;6.65;4.78;;;;;;;;;;7394290;19;20011;-71
2022/09/25 08:59:22;;;;;;;6.20;4.57;;;;;;;;;;7390546;19;20003;-71
2022/09/25 09:02:12;;;;;;;6.43;5.25;;;;;;;;;;7390444;19;20007;-71
2022/09/25 09:04:44;;;;;;;8.23;5.45;;;;;;;;;;7390634;19;20109;-71
2022/09/25 09:07:14;;;;;;;8.02;4.88;;;;;;;;;;7389867;19;20006;-71
2022/09/25 09:09:47;;;;;;;7.13;4.72;;;;;;;;;;7391159;19;20506;-71
2022/09/25 09:12:15;;;;;;;5.47;4.57;;;;;;;;;;7392189;19;20113;-71
2022/09/25 09:14:51;;;;;;;5.70;4.55;;;;;;;;;;7384931;19;20030;-71
2022/09/25 09:17:20;;;;;;;7.47;5.22;;;;;;;;;;7393892;19;20038;-71
2022/09/25 09:19:52;;;;;;;8.10;5.50;;;;;;;;;;7391629;19;20014;-71
2022/09/25 09:22:25;;;;;;;7.28;5.40;;;;;;;;;;7390211;19;20020;-72
2022/09/25 09:25:00;;;;;;;7.70;5.78;;;;;;;;;;7391879;19;20514;-72
2022/09/25 09:28:03;;;;;;;8.30;5.68;;;;;;;;;;7389874;19;20399;-72
2022/09/25 09:30:48;;;;;;;6.30;4.85;;;;;;;;;;7392901;19;20487;-71
2022/09/25 09:33:37;;;;;;;7.88;4.85;;;;;;;;;;7387487;19;20006;-72
2022/09/25 09:36:37;;;;;;;6.05;4.75;;;;;;;;;;7386268;19;20018;-72
2022/09/25 09:39:18;;;;;;;5.63;3.83;;;;;;;;;;7390366;19;20538;-71
2022/09/25 09:41:43;;;;;;;4.40;3.67;;;;;;;;;;7389693;19;20007;-72
2022/09/25 09:44:24;;;;;;;5.57;4.53;;;;;;;;;;7390987;19;20009;-71
2022/09/25 09:47:04;;;;;;;6.25;4.70;;;;;;;;;;7392604;19;20043;-72
2022/09/25 09:49:38;;;;;;;6.40;4.70;;;;;;;;;;7392856;19;20420;-72
2022/09/25 09:52:16;;;;;;;6.45;4.50;;;;;;;;;;7388967;19;20035;-72
2022/09/25 09:54:52;;;;;;;5.75;4.63;;;;;;;;;;7388496;19;20375;-72
2022/09/25 09:57:23;;;;;;;6.63;4.78;;;;;;;;;;7390902;19;20007;-72
2022/09/25 09:59:54;;;;;;;7.47;5.32;;;;;;;;;;7392486;19;20002;-72
2022/09/25 10:02:41;;;;;;;6.00;4.13;;;;;;;;;;7388575;19;20007;-72
2022/09/25 10:05:16;;;;;;;7.10;5.18;;;;;;;;;;7387770;19;20002;-72
2022/09/25 10:07:43;;;;;;;5.85;4.43;;;;;;;;;;7388302;19;20006;-72
2022/09/25 10:10:13;;;;;;;6.35;4.75;;;;;;;;;;7392012;19;20032;-72
2022/09/25 10:12:43;;;;;;;4.93;3.88;;;;;;;;;;7387643;19;20489;-72
2022/09/25 10:15:33;;;;;;;5.57;4.22;;;;;;;;;;7385591;19;20035;-72
2022/09/25 10:18:00;;;;;;;7.15;4.85;;;;;;;;;;7391977;19;20078;-72
2022/09/25 10:20:36;;;;;;;7.90;4.60;;;;;;;;;;7398280;19;19998;-72
2022/09/25 10:23:03;;;;;;;6.13;3.83;;;;;;;;;;7396494;19;20047;-73
2022/09/25 10:25:37;;;;;;;5.03;3.78;;;;;;;;;;7390985;19;19998;-72
2022/09/25 10:28:21;;;;;;;6.60;4.35;;;;;;;;;;7398941;19;19999;-72
2022/09/25 10:30:47;;;;;;;5.05;3.90;;;;;;;;;;7398329;19;20010;-72
2022/09/25 10:33:24;;;;;;;5.28;3.45;;;;;;;;;;7395399;19;20030;-72
2022/09/25 10:35:53;;;;;;;4.57;3.75;;;;;;;;;;7396680;19;20037;-72
2022/09/25 10:38:31;;;;;;;7.13;3.63;;;;;;;;;;7397544;19;19995;-72
2022/09/25 10:41:15;;;;;;;4.72;3.70;;;;;;;;;;7397487;19;20014;-73
2022/09/25 10:44:00;;;;;;;6.05;4.13;;;;;;;;;;7394643;19;20006;-72
2022/09/25 10:52:12;;;;;;;4.88;3.88;;;;;;;;;;7396684;19;20035;-72
2022/09/25 10:54:38;;;;;;;5.38;3.97;;;;;;;;;;7393645;19;20062;-73
2022/09/25 10:57:34;;;;;;;5.18;4.00;;;;;;;;;;7395631;19;20010;-72
2022/09/25 11:00:01;;;;;;;5.32;3.72;;;;;;;;;;7395397;19;20006;-72
2022/09/25 11:02:35;;;;;;;6.20;3.60;;;;;;;;;;7392703;19;20495;-78
2022/09/25 11:05:01;;;;;;;5.00;3.90;;;;;;;;;;7395872;19;20062;-78
2022/09/25 11:07:27;;;;;;;5.57;3.92;;;;;;;;;;7399428;19;20090;-78
2022/09/25 11:09:52;;;;;;;6.28;4.00;;;;;;;;;;7394127;19;19987;-78
2022/09/25 11:12:28;;;;;;;5.90;4.07;;;;;;;;;;7389488;19;20006;-78
2022/09/25 11:14:57;;;;;;;5.80;4.03;;;;;;;;;;7395109;19;20494;-78
2022/09/25 11:17:37;;;;;;;8.75;5.10;;;;;;;;;;7399344;19;20125;-78
2022/09/25 11:20:18;;;;;;;7.57;4.93;;;;;;;;;;7394181;19;20113;-78
2022/09/25 11:22:51;;;;;;;7.97;4.80;;;;;;;;;;7393395;19;20012;-78
2022/09/25 11:25:25;;;;;;;5.35;3.95;;;;;;;;;;7394441;19;20031;-78
2022/09/25 11:27:56;;;;;;;6.57;4.30;;;;;;;;;;7397124;19;20017;-77
2022/09/25 11:30:22;;;;;;;6.20;4.38;;;;;;;;;;7393411;19;20003;-77
2022/09/25 11:33:24;;;;;;;5.13;4.10;;;;;;;;;;7397023;19;20483;-78
2022/09/25 11:36:05;;;;;;;6.18;4.50;;;;;;;;;;7390126;19;20462;-78
2022/09/25 11:41:45;;;;;;;7.47;4.60;;;;;;;;;;7393955;19;20079;-78
2022/09/25 11:44:53;;;;;;;11.77;6.30;;;;;;;;;;7395011;19;20021;-78
2022/09/25 11:47:27;;;;;;;6.07;3.75;;;;;;;;;;7393409;19;20585;-78
2022/09/25 11:49:53;;;;;;;6.78;4.50;;;;;;;;;;7396536;19;20033;-78
2022/09/25 11:52:36;;;;;;;8.05;4.22;;;;;;;;;;7396152;19;19999;-78
2022/09/25 11:55:19;;;;;;;5.35;3.67;;;;;;;;;;7392138;19;19995;-78
2022/09/25 11:58:15;;;;;;;4.47;2.97;;;;;;;;;;7395802;19;20042;-79
2022/09/25 12:00:52;;;;;;;4.38;3.40;;;;;;;;;;7397255;19;20009;-78
2022/09/25 12:03:30;;;;;;;3.70;2.83;;;;;;;;;;7393560;19;20106;-79
2022/09/25 12:06:04;;;;;;;3.88;3.20;;;;;;;;;;7393764;19;20070;-78
2022/09/25 12:08:43;;;;;;;3.57;2.73;;;;;;;;;;7397163;19;20015;-79
2022/09/25 12:11:30;;;;;;;3.65;2.75;;;;;;;;;;7391571;19;20259;-79
2022/09/25 12:14:02;;;;;;;4.05;2.90;;;;;;;;;;7390807;19;20152;-79
2022/09/25 12:16:33;;;;;;;3.75;3.00;;;;;;;;;;7394410;19;20014;-78
2022/09/25 12:19:48;;;;;;;3.42;2.80;;;;;;;;;;7395570;19;20006;-79
2022/09/25 12:22:48;;;;;;;5.28;3.58;;;;;;;;;;7390709;19;20010;-78
2022/09/25 12:25:43;;;;;;;4.85;3.25;;;;;;;;;;7392421;19;20015;-79
2022/09/25 12:28:27;;;;;;;5.70;3.50;;;;;;;;;;7396105;19;20010;-79
2022/09/25 12:31:22;;;;;;;4.53;3.28;;;;;;;;;;7396581;19;20256;-78
2022/09/25 12:34:15;;;;;;;5.15;3.58;;;;;;;;;;7391425;19;20010;-79
2022/09/25 12:36:50;;;;;;;5.05;4.00;;;;;;;;;;7393761;19;20033;-78
2022/09/25 12:39:53;;;;;;;10.93;5.75;;;;;;;;;;7393336;19;20006;-78
2022/09/25 12:42:37;;;;;;;5.45;3.85;;;;;;;;;;7387515;19;19995;-79
2022/09/25 12:45:14;;;;;;;11.45;5.50;;;;;;;;;;7389580;19;20054;-78
2022/09/25 12:48:06;;;;;;;4.93;3.63;;;;;;;;;;7395575;19;20026;-78
2022/09/25 12:50:39;;;;;;;4.93;3.58;;;;;;;;;;7391749;19;20011;-76
2022/09/25 12:53:22;;;;;;;9.10;5.63;;;;;;;;;;7392300;19;20081;-78
2022/09/25 12:55:55;;;;;;;4.93;3.47;;;;;;;;;;7392949;19;20010;-79
2022/09/25 12:58:26;;;;;;;5.18;3.40;;;;;;;;;;7391390;19;20043;-79
2022/09/25 13:01:05;;;;;;;4.30;3.28;;;;;;;;;;7395826;19;20010;-79
2022/09/25 13:03:42;;;;;;;4.63;3.47;;;;;;;;;;7396092;19;20011;-79
2022/09/25 13:06:35;;;;;;;5.15;3.45;;;;;;;;;;7394829;19;20006;-78
2022/09/25 13:09:19;;;;;;;3.22;2.42;;;;;;;;;;7392686;19;20113;-79
2022/09/25 13:11:49;;;;;;;3.63;2.88;;;;;;;;;;7390416;19;20010;-77
2022/09/25 13:14:30;;;;;;;4.95;3.03;;;;;;;;;;7388551;19;20014;-79
2022/09/25 13:16:56;;;;;;;3.20;2.78;;;;;;;;;;7395019;19;20462;-79
2022/09/25 13:19:32;;;;;;;3.72;2.58;;;;;;;;;;7394459;19;20002;-77
2022/09/25 13:22:01;;;;;;;3.30;2.78;;;;;;;;;;7392100;19;20006;-77
2022/09/25 13:24:27;;;;;;;2.63;2.20;;;;;;;;;;7390055;19;20478;-79
2022/09/25 13:26:55;;;;;;;3.20;2.20;;;;;;;;;;7393385;19;20013;-81
2022/09/25 13:29:28;;;;;;;3.20;2.17;;;;;;;;;;7394640;19;20014;-79
2022/09/25 13:32:15;;;;;;;2.63;2.15;;;;;;;;;;7390074;19;20373;-78
2022/09/25 13:34:41;;;;;;;3.03;2.20;;;;;;;;;;7390404;19;20006;-80
2022/09/25 13:37:09;;;;;;;2.70;2.22;;;;;;;;;;7393589;19;19999;-78
2022/09/25 13:42:28;;;;;;;4.65;3.13;;;;;;;;;;7389887;19;20044;-77
2022/09/25 13:45:18;;;;;;;7.13;4.20;;;;;;;;;;7392804;19;20023;-78
2022/09/25 13:47:56;;;;;;;3.97;2.83;;;;;;;;;;7390722;19;20014;-77
2022/09/25 13:50:25;;;;;;;4.10;3.03;;;;;;;;;;7392307;19;20002;-78
2022/09/25 13:55:47;;;;;;;3.28;2.38;;;;;;;;;;7397637;19;20017;-79
2022/09/25 13:58:16;;;;;;;3.88;2.80;;;;;;;;;;7397871;19;20074;-78
2022/09/25 14:00:57;;;;;;;3.47;2.65;;;;;;;;;;7386175;19;20010;-79
2022/09/25 14:03:36;;;;;;;3.33;2.50;;;;;;;;;;7398966;19;20132;-78
2022/09/25 14:06:03;;;;;;;3.00;2.55;;;;;;;;;;7397191;19;20062;-78
2022/09/25 14:08:31;;;;;;;3.38;2.50;;;;;;;;;;7396750;19;20371;-77
2022/09/25 14:10:58;;;;;;;4.05;3.00;;;;;;;;;;7395402;19;20010;-78
2022/09/25 14:13:27;;;;;;;4.63;2.90;;;;;;;;;;7399941;19;20106;-78
2022/09/25 14:15:56;;;;;;;4.82;2.60;;;;;;;;;;7397348;19;20043;-78
2022/09/25 14:18:25;;;;;;;3.85;2.55;;;;;;;;;;7396737;19;20022;-77
2022/09/25 14:20:57;;;;;;;4.18;2.78;;;;;;;;;;7396378;19;20502;-80
2022/09/25 14:23:26;;;;;;;3.33;2.80;;;;;;;;;;7399256;19;20002;-79
2022/09/25 14:26:16;;;;;;;2.80;2.10;;;;;;;;;;7399143;19;20010;-81
2022/09/25 14:28:46;;;;;;;3.10;2.80;;;;;;;;;;7398732;19;20025;-82
2022/09/25 14:31:36;;;;;;;4.45;2.65;;;;;;;;;;7394926;19;20015;-79
2022/09/25 14:34:28;;;;;;;3.53;2.67;;;;;;;;;;7398790;19;20464;-77
2022/09/25 14:37:15;;;;;;;3.72;2.28;;;;;;;;;;7394788;19;20006;-78
2022/09/25 14:40:01;;;;;;;2.78;2.47;;;;;;;;;;7396358;19;20018;-77
2022/09/25 14:42:53;;;;;;;2.60;2.13;;;;;;;;;;7396402;19;20007;-76
2022/09/25 14:45:34;;;;;;;2.58;2.10;;;;;;;;;;7395383;19;20534;-76
2022/09/25 14:48:02;;;;;;;3.03;2.13;;;;;;;;;;7395160;19;20499;-76
2022/09/25 14:50:34;;;;;;;2.90;2.10;;;;;;;;;;7388967;19;20010;-76
2022/09/25 14:53:06;;;;;;;2.40;1.90;;;;;;;;;;7393512;19;19995;-76
2022/09/25 14:55:37;;;;;;;2.60;2.20;;;;;;;;;;7396916;19;20006;-76
2022/09/25 14:58:08;;;;;;;3.22;2.28;;;;;;;;;;7398019;19;20010;-77
2022/09/25 15:00:34;;;;;;;5.55;2.38;;;;;;;;;;7391458;19;20091;-75
2022/09/25 15:03:01;;;;;;;2.33;2.13;;;;;;;;;;7394377;19;20007;-76
2022/09/25 15:05:33;;;;;;;3.60;2.35;;;;;;;;;;7396018;19;20003;-75
2022/09/25 15:08:01;;;;;;;2.63;1.98;;;;;;;;;;7395844;19;20024;-76
2022/09/25 15:10:30;;;;;;;2.63;2.00;;;;;;;;;;7383054;19;20809;-76
2022/09/25 15:13:17;;;;;;;3.85;2.45;;;;;;;;;;7387318;19;20011;-75
2022/09/25 15:18:36;;;;;;;2.72;2.03;;;;;;;;;;7394036;19;20018;-75
2022/09/25 15:21:01;;;;;;;3.63;2.35;;;;;;;;;;7397828;19;20448;-75
2022/09/25 15:23:26;;;;;;;2.42;2.22;;;;;;;;;;7391172;19;20011;-74
2022/09/25 15:25:57;;;;;;;2.58;2.17;;;;;;;;;;7394904;19;20347;-75
2022/09/25 15:28:26;;;;;;;2.70;2.38;;;;;;;;;;7398115;19;20013;-75
2022/09/25 15:30:57;;;;;;;3.53;2.72;;;;;;;;;;7394516;19;20418;-76
2022/09/25 15:33:27;;;;;;;2.95;2.53;;;;;;;;;;7397255;19;20010;-76
2022/09/25 15:36:00;;;;;;;3.45;2.25;;;;;;;;;;7395079;19;20368;-75
2022/09/25 15:38:34;;;;;;;2.45;2.20;;;;;;;;;;7396845;19;20006;-78
2022/09/25 15:41:00;;;;;;;11.27;7.13;;;;;;;;;;7394052;19;20017;-77
2022/09/25 15:43:26;;;;;;;6.28;4.70;;;;;;;;;;7394894;19;20002;-78